sensor_id;sensor_type;location;lat;lon;timestamp;P1;durP1;ratioP1;P2;durP2;ratioP2
11620;SDS011;5866;49.094;11.900;2024-03-08T00:00:05;94.60;;;87.10;;
11620;SDS011;5866;49.094;11.900;2024-03-08T00:02:39;94.13;;;86.40;;
11620;SDS011;5866;49.094;11.900;2024-03-08T00:05:08;99.07;;;91.30;;
11620;SDS011;5866;49.094;11.900;2024-03-08T00:07:36;100.77;;;93.23;;
11620;SDS011;5866;49.094;11.900;2024-03-08T00:10:04;77.93;;;71.43;;
11620;SDS011;5866;49.094;11.900;2024-03-08T00:12:33;85.47;;;78.50;;
11620;SDS011;5866;49.094;11.900;2024-03-08T00:15:01;87.40;;;80.43;;
11620;SDS011;5866;49.094;11.900;2024-03-08T00:17:29;92.47;;;85.13;;
11620;SDS011;5866;49.094;11.900;2024-03-08T00:19:57;83.80;;;77.03;;
11620;SDS011;5866;49.094;11.900;2024-03-08T00:22:26;80.73;;;73.83;;
11620;SDS011;5866;49.094;11.900;2024-03-08T00:24:56;78.87;;;71.93;;
11620;SDS011;5866;49.094;11.900;2024-03-08T00:27:24;94.10;;;86.70;;
11620;SDS011;5866;49.094;11.900;2024-03-08T00:29:51;89.50;;;81.97;;
11620;SDS011;5866;49.094;11.900;2024-03-08T00:32:19;157.40;;;147.03;;
11620;SDS011;5866;49.094;11.900;2024-03-08T00:34:47;194.97;;;182.33;;
11620;SDS011;5866;49.094;11.900;2024-03-08T00:37:14;208.07;;;195.27;;
11620;SDS011;5866;49.094;11.900;2024-03-08T00:39:43;217.13;;;203.20;;
11620;SDS011;5866;49.094;11.900;2024-03-08T00:42:11;271.90;;;255.30;;
11620;SDS011;5866;49.094;11.900;2024-03-08T00:44:39;149.17;;;138.57;;
11620;SDS011;5866;49.094;11.900;2024-03-08T00:47:07;90.63;;;83.17;;
11620;SDS011;5866;49.094;11.900;2024-03-08T00:49:35;166.43;;;155.17;;
11620;SDS011;5866;49.094;11.900;2024-03-08T00:52:04;168.70;;;157.43;;
11620;SDS011;5866;49.094;11.900;2024-03-08T00:54:34;207.73;;;194.53;;
11620;SDS011;5866;49.094;11.900;2024-03-08T00:57:03;209.83;;;196.57;;
11620;SDS011;5866;49.094;11.900;2024-03-08T00:59:33;99.47;;;91.50;;
11620;SDS011;5866;49.094;11.900;2024-03-08T01:02:01;82.53;;;75.47;;
11620;SDS011;5866;49.094;11.900;2024-03-08T01:04:29;115.17;;;106.10;;
11620;SDS011;5866;49.094;11.900;2024-03-08T01:06:57;61.53;;;55.67;;
11620;SDS011;5866;49.094;11.900;2024-03-08T01:09:25;66.37;;;59.63;;
11620;SDS011;5866;49.094;11.900;2024-03-08T01:11:53;50.20;;;42.20;;
11620;SDS011;5866;49.094;11.900;2024-03-08T01:14:23;50.00;;;41.53;;
11620;SDS011;5866;49.094;11.900;2024-03-08T01:16:52;55.40;;;49.77;;
11620;SDS011;5866;49.094;11.900;2024-03-08T01:19:21;60.37;;;54.13;;
11620;SDS011;5866;49.094;11.900;2024-03-08T01:21:49;52.53;;;47.27;;
11620;SDS011;5866;49.094;11.900;2024-03-08T01:24:17;59.27;;;52.87;;
11620;SDS011;5866;49.094;11.900;2024-03-08T01:26:45;58.70;;;52.40;;
11620;SDS011;5866;49.094;11.900;2024-03-08T01:29:14;57.67;;;51.50;;
11620;SDS011;5866;49.094;11.900;2024-03-08T01:31:43;58.43;;;52.47;;
11620;SDS011;5866;49.094;11.900;2024-03-08T01:34:10;79.23;;;72.03;;
11620;SDS011;5866;49.094;11.900;2024-03-08T01:36:38;66.63;;;59.90;;
11620;SDS011;5866;49.094;11.900;2024-03-08T01:39:06;63.10;;;56.40;;
11620;SDS011;5866;49.094;11.900;2024-03-08T01:41:35;80.50;;;73.10;;
11620;SDS011;5866;49.094;11.900;2024-03-08T01:44:03;104.43;;;95.90;;
11620;SDS011;5866;49.094;11.900;2024-03-08T01:46:33;101.00;;;92.73;;
11620;SDS011;5866;49.094;11.900;2024-03-08T01:49:03;106.30;;;98.10;;
11620;SDS011;5866;49.094;11.900;2024-03-08T01:51:31;104.17;;;95.57;;
11620;SDS011;5866;49.094;11.900;2024-03-08T01:53:59;79.50;;;72.07;;
11620;SDS011;5866;49.094;11.900;2024-03-08T01:56:30;96.73;;;88.67;;
11620;SDS011;5866;49.094;11.900;2024-03-08T01:58:58;82.80;;;75.40;;
11620;SDS011;5866;49.094;11.900;2024-03-08T02:01:27;90.10;;;82.53;;
11620;SDS011;5866;49.094;11.900;2024-03-08T02:03:55;97.63;;;89.27;;
11620;SDS011;5866;49.094;11.900;2024-03-08T02:06:24;87.10;;;79.43;;
11620;SDS011;5866;49.094;11.900;2024-03-08T02:08:52;93.53;;;85.43;;
11620;SDS011;5866;49.094;11.900;2024-03-08T02:11:20;91.10;;;83.37;;
11620;SDS011;5866;49.094;11.900;2024-03-08T02:13:48;87.03;;;79.33;;
11620;SDS011;5866;49.094;11.900;2024-03-08T02:16:20;90.17;;;82.20;;
11620;SDS011;5866;49.094;11.900;2024-03-08T02:18:48;82.63;;;75.53;;
11620;SDS011;5866;49.094;11.900;2024-03-08T02:21:18;74.03;;;67.33;;
11620;SDS011;5866;49.094;11.900;2024-03-08T02:23:45;81.53;;;74.70;;
11620;SDS011;5866;49.094;11.900;2024-03-08T02:26:13;66.23;;;59.43;;
11620;SDS011;5866;49.094;11.900;2024-03-08T02:28:41;52.53;;;44.77;;
11620;SDS011;5866;49.094;11.900;2024-03-08T02:31:10;57.37;;;51.07;;
11620;SDS011;5866;49.094;11.900;2024-03-08T02:33:38;51.23;;;45.27;;
11620;SDS011;5866;49.094;11.900;2024-03-08T02:36:06;55.83;;;46.67;;
11620;SDS011;5866;49.094;11.900;2024-03-08T02:38:36;54.10;;;45.37;;
11620;SDS011;5866;49.094;11.900;2024-03-08T02:41:04;52.73;;;44.73;;
11620;SDS011;5866;49.094;11.900;2024-03-08T02:43:32;61.00;;;54.37;;
11620;SDS011;5866;49.094;11.900;2024-03-08T02:46:00;56.50;;;49.97;;
11620;SDS011;5866;49.094;11.900;2024-03-08T02:48:27;55.37;;;49.30;;
11620;SDS011;5866;49.094;11.900;2024-03-08T02:50:55;50.37;;;39.27;;
11620;SDS011;5866;49.094;11.900;2024-03-08T02:53:23;60.87;;;54.60;;
11620;SDS011;5866;49.094;11.900;2024-03-08T02:55:52;58.00;;;43.97;;
11620;SDS011;5866;49.094;11.900;2024-03-08T02:58:21;56.40;;;46.20;;
11620;SDS011;5866;49.094;11.900;2024-03-08T03:00:49;53.67;;;45.43;;
11620;SDS011;5866;49.094;11.900;2024-03-08T03:03:17;57.37;;;49.07;;
11620;SDS011;5866;49.094;11.900;2024-03-08T03:05:44;61.47;;;45.20;;
11620;SDS011;5866;49.094;11.900;2024-03-08T03:08:14;54.67;;;43.17;;
11620;SDS011;5866;49.094;11.900;2024-03-08T03:10:44;56.57;;;47.83;;
11620;SDS011;5866;49.094;11.900;2024-03-08T03:13:13;56.07;;;39.40;;
11620;SDS011;5866;49.094;11.900;2024-03-08T03:15:41;54.53;;;44.07;;
11620;SDS011;5866;49.094;11.900;2024-03-08T03:18:09;54.90;;;43.57;;
11620;SDS011;5866;49.094;11.900;2024-03-08T03:20:38;56.33;;;43.10;;
11620;SDS011;5866;49.094;11.900;2024-03-08T03:23:08;52.80;;;42.30;;
11620;SDS011;5866;49.094;11.900;2024-03-08T03:25:40;52.63;;;42.07;;
11620;SDS011;5866;49.094;11.900;2024-03-08T03:28:08;51.33;;;39.03;;
11620;SDS011;5866;49.094;11.900;2024-03-08T03:30:39;51.43;;;38.17;;
11620;SDS011;5866;49.094;11.900;2024-03-08T03:33:07;55.03;;;41.10;;
11620;SDS011;5866;49.094;11.900;2024-03-08T03:35:35;50.97;;;39.00;;
11620;SDS011;5866;49.094;11.900;2024-03-08T03:38:04;48.77;;;36.13;;
11620;SDS011;5866;49.094;11.900;2024-03-08T03:40:36;57.67;;;44.00;;
11620;SDS011;5866;49.094;11.900;2024-03-08T03:43:04;51.47;;;41.10;;
11620;SDS011;5866;49.094;11.900;2024-03-08T03:45:32;54.50;;;44.47;;
11620;SDS011;5866;49.094;11.900;2024-03-08T03:48:03;57.33;;;46.53;;
11620;SDS011;5866;49.094;11.900;2024-03-08T03:50:33;139.63;;;129.67;;
11620;SDS011;5866;49.094;11.900;2024-03-08T03:53:02;52.77;;;46.13;;
11620;SDS011;5866;49.094;11.900;2024-03-08T03:55:36;62.30;;;55.73;;
11620;SDS011;5866;49.094;11.900;2024-03-08T03:58:06;75.83;;;69.40;;
11620;SDS011;5866;49.094;11.900;2024-03-08T04:00:33;67.87;;;61.23;;
11620;SDS011;5866;49.094;11.900;2024-03-08T04:03:02;71.50;;;65.00;;
11620;SDS011;5866;49.094;11.900;2024-03-08T04:05:30;74.70;;;67.77;;
11620;SDS011;5866;49.094;11.900;2024-03-08T04:07:58;75.40;;;67.90;;
11620;SDS011;5866;49.094;11.900;2024-03-08T04:10:25;80.80;;;73.93;;
11620;SDS011;5866;49.094;11.900;2024-03-08T04:12:53;63.20;;;56.80;;
11620;SDS011;5866;49.094;11.900;2024-03-08T04:15:21;55.27;;;47.53;;
11620;SDS011;5866;49.094;11.900;2024-03-08T04:17:49;54.70;;;39.33;;
11620;SDS011;5866;49.094;11.900;2024-03-08T04:20:19;52.90;;;41.60;;
11620;SDS011;5866;49.094;11.900;2024-03-08T04:22:47;49.37;;;37.40;;
11620;SDS011;5866;49.094;11.900;2024-03-08T04:25:16;50.10;;;38.53;;
11620;SDS011;5866;49.094;11.900;2024-03-08T04:27:43;54.93;;;40.87;;
11620;SDS011;5866;49.094;11.900;2024-03-08T04:30:12;52.87;;;38.83;;
11620;SDS011;5866;49.094;11.900;2024-03-08T04:32:40;51.60;;;40.87;;
11620;SDS011;5866;49.094;11.900;2024-03-08T04:35:09;59.93;;;40.13;;
11620;SDS011;5866;49.094;11.900;2024-03-08T04:37:40;50.40;;;40.07;;
11620;SDS011;5866;49.094;11.900;2024-03-08T04:40:08;49.43;;;36.33;;
11620;SDS011;5866;49.094;11.900;2024-03-08T04:42:38;56.83;;;37.77;;
11620;SDS011;5866;49.094;11.900;2024-03-08T04:45:08;49.27;;;37.30;;
11620;SDS011;5866;49.094;11.900;2024-03-08T04:47:37;52.57;;;36.77;;
11620;SDS011;5866;49.094;11.900;2024-03-08T04:50:05;55.40;;;35.53;;
11620;SDS011;5866;49.094;11.900;2024-03-08T04:52:35;54.50;;;40.60;;
11620;SDS011;5866;49.094;11.900;2024-03-08T04:55:04;50.20;;;36.00;;
11620;SDS011;5866;49.094;11.900;2024-03-08T04:57:33;52.57;;;37.53;;
11620;SDS011;5866;49.094;11.900;2024-03-08T05:00:01;56.93;;;42.00;;
11620;SDS011;5866;49.094;11.900;2024-03-08T05:02:30;58.20;;;45.17;;
11620;SDS011;5866;49.094;11.900;2024-03-08T05:04:58;57.33;;;44.80;;
11620;SDS011;5866;49.094;11.900;2024-03-08T05:07:27;56.43;;;45.43;;
11620;SDS011;5866;49.094;11.900;2024-03-08T05:09:54;58.63;;;49.90;;
11620;SDS011;5866;49.094;11.900;2024-03-08T05:12:24;63.37;;;53.60;;
11620;SDS011;5866;49.094;11.900;2024-03-08T05:14:52;60.33;;;46.90;;
11620;SDS011;5866;49.094;11.900;2024-03-08T05:17:20;60.63;;;53.77;;
11620;SDS011;5866;49.094;11.900;2024-03-08T05:19:50;60.67;;;53.10;;
11620;SDS011;5866;49.094;11.900;2024-03-08T05:22:18;62.63;;;54.13;;
11620;SDS011;5866;49.094;11.900;2024-03-08T05:24:45;67.40;;;57.90;;
11620;SDS011;5866;49.094;11.900;2024-03-08T05:27:13;78.53;;;70.93;;
11620;SDS011;5866;49.094;11.900;2024-03-08T05:29:42;91.77;;;83.43;;
11620;SDS011;5866;49.094;11.900;2024-03-08T05:32:10;101.57;;;92.07;;
11620;SDS011;5866;49.094;11.900;2024-03-08T05:34:38;83.03;;;74.70;;
11620;SDS011;5866;49.094;11.900;2024-03-08T05:37:05;78.97;;;70.53;;
11620;SDS011;5866;49.094;11.900;2024-03-08T05:39:33;68.07;;;58.83;;
11620;SDS011;5866;49.094;11.900;2024-03-08T05:42:01;65.40;;;48.47;;
11620;SDS011;5866;49.094;11.900;2024-03-08T05:44:29;62.80;;;40.73;;
11620;SDS011;5866;49.094;11.900;2024-03-08T05:46:58;57.80;;;40.80;;
11620;SDS011;5866;49.094;11.900;2024-03-08T05:49:26;62.93;;;45.60;;
11620;SDS011;5866;49.094;11.900;2024-03-08T05:51:54;63.50;;;48.90;;
11620;SDS011;5866;49.094;11.900;2024-03-08T05:54:22;67.10;;;54.13;;
11620;SDS011;5866;49.094;11.900;2024-03-08T05:56:51;71.27;;;55.00;;
11620;SDS011;5866;49.094;11.900;2024-03-08T05:59:19;66.33;;;56.30;;
11620;SDS011;5866;49.094;11.900;2024-03-08T06:01:46;98.70;;;88.93;;
11620;SDS011;5866;49.094;11.900;2024-03-08T06:04:16;66.67;;;53.77;;
11620;SDS011;5866;49.094;11.900;2024-03-08T06:06:45;70.33;;;48.80;;
11620;SDS011;5866;49.094;11.900;2024-03-08T06:09:17;64.87;;;45.57;;
11620;SDS011;5866;49.094;11.900;2024-03-08T06:11:49;63.83;;;42.80;;
11620;SDS011;5866;49.094;11.900;2024-03-08T06:14:17;68.57;;;46.27;;
11620;SDS011;5866;49.094;11.900;2024-03-08T06:16:45;65.27;;;48.17;;
11620;SDS011;5866;49.094;11.900;2024-03-08T06:19:13;76.07;;;49.93;;
11620;SDS011;5866;49.094;11.900;2024-03-08T06:21:43;63.77;;;44.33;;
11620;SDS011;5866;49.094;11.900;2024-03-08T06:24:10;70.43;;;46.23;;
11620;SDS011;5866;49.094;11.900;2024-03-08T06:26:39;73.13;;;61.93;;
11620;SDS011;5866;49.094;11.900;2024-03-08T06:29:07;70.07;;;55.87;;
11620;SDS011;5866;49.094;11.900;2024-03-08T06:31:34;69.20;;;59.83;;
11620;SDS011;5866;49.094;11.900;2024-03-08T06:34:05;89.17;;;80.30;;
11620;SDS011;5866;49.094;11.900;2024-03-08T06:36:34;88.87;;;79.50;;
11620;SDS011;5866;49.094;11.900;2024-03-08T06:39:05;82.87;;;74.43;;
11620;SDS011;5866;49.094;11.900;2024-03-08T06:41:36;68.83;;;61.77;;
11620;SDS011;5866;49.094;11.900;2024-03-08T06:44:04;61.30;;;42.17;;
11620;SDS011;5866;49.094;11.900;2024-03-08T06:46:31;69.57;;;52.53;;
11620;SDS011;5866;49.094;11.900;2024-03-08T06:49:00;69.00;;;59.87;;
11620;SDS011;5866;49.094;11.900;2024-03-08T06:51:27;71.73;;;61.30;;
11620;SDS011;5866;49.094;11.900;2024-03-08T06:53:55;67.43;;;47.77;;
11620;SDS011;5866;49.094;11.900;2024-03-08T06:56:24;60.83;;;46.60;;
11620;SDS011;5866;49.094;11.900;2024-03-08T06:58:51;65.97;;;52.50;;
11620;SDS011;5866;49.094;11.900;2024-03-08T07:01:19;69.30;;;60.87;;
11620;SDS011;5866;49.094;11.900;2024-03-08T07:03:47;65.77;;;51.80;;
11620;SDS011;5866;49.094;11.900;2024-03-08T07:06:15;91.17;;;82.57;;
11620;SDS011;5866;49.094;11.900;2024-03-08T07:08:43;84.93;;;76.70;;
11620;SDS011;5866;49.094;11.900;2024-03-08T07:11:12;64.10;;;51.30;;
11620;SDS011;5866;49.094;11.900;2024-03-08T07:13:43;63.50;;;49.60;;
11620;SDS011;5866;49.094;11.900;2024-03-08T07:16:11;72.43;;;64.73;;
11620;SDS011;5866;49.094;11.900;2024-03-08T07:18:39;87.27;;;79.13;;
11620;SDS011;5866;49.094;11.900;2024-03-08T07:21:09;112.53;;;102.47;;
11620;SDS011;5866;49.094;11.900;2024-03-08T07:23:37;108.13;;;98.70;;
11620;SDS011;5866;49.094;11.900;2024-03-08T07:26:29;97.30;;;89.07;;
11620;SDS011;5866;49.094;11.900;2024-03-08T07:28:59;192.50;;;178.90;;
11620;SDS011;5866;49.094;11.900;2024-03-08T07:31:27;191.80;;;178.23;;
11620;SDS011;5866;49.094;11.900;2024-03-08T07:34:10;137.57;;;127.83;;
11620;SDS011;5866;49.094;11.900;2024-03-08T07:36:38;135.97;;;126.67;;
11620;SDS011;5866;49.094;11.900;2024-03-08T07:39:06;59.80;;;54.53;;
11620;SDS011;5866;49.094;11.900;2024-03-08T07:41:37;59.57;;;54.27;;
11620;SDS011;5866;49.094;11.900;2024-03-08T07:44:07;100.50;;;93.40;;
11620;SDS011;5866;49.094;11.900;2024-03-08T07:46:35;40.17;;;35.97;;
11620;SDS011;5866;49.094;11.900;2024-03-08T07:49:03;33.90;;;30.27;;
11620;SDS011;5866;49.094;11.900;2024-03-08T07:51:30;34.67;;;31.37;;
11620;SDS011;5866;49.094;11.900;2024-03-08T07:54:01;27.13;;;22.87;;
11620;SDS011;5866;49.094;11.900;2024-03-08T07:56:30;22.83;;;20.27;;
11620;SDS011;5866;49.094;11.900;2024-03-08T07:58:58;21.75;;;19.40;;
11620;SDS011;5866;49.094;11.900;2024-03-08T08:01:27;23.33;;;20.85;;
11620;SDS011;5866;49.094;11.900;2024-03-08T08:03:55;23.13;;;20.35;;
11620;SDS011;5866;49.094;11.900;2024-03-08T08:06:22;22.10;;;19.80;;
11620;SDS011;5866;49.094;11.900;2024-03-08T08:08:51;22.92;;;18.35;;
11620;SDS011;5866;49.094;11.900;2024-03-08T08:11:19;20.65;;;18.48;;
11620;SDS011;5866;49.094;11.900;2024-03-08T08:13:47;19.88;;;17.73;;
11620;SDS011;5866;49.094;11.900;2024-03-08T08:16:14;20.48;;;16.45;;
11620;SDS011;5866;49.094;11.900;2024-03-08T08:18:44;19.50;;;16.65;;
11620;SDS011;5866;49.094;11.900;2024-03-08T08:21:12;19.08;;;17.08;;
11620;SDS011;5866;49.094;11.900;2024-03-08T08:23:40;20.38;;;18.27;;
11620;SDS011;5866;49.094;11.900;2024-03-08T08:26:07;19.73;;;17.23;;
11620;SDS011;5866;49.094;11.900;2024-03-08T08:28:35;19.77;;;17.77;;
11620;SDS011;5866;49.094;11.900;2024-03-08T08:31:02;19.98;;;16.08;;
11620;SDS011;5866;49.094;11.900;2024-03-08T08:33:30;18.27;;;16.13;;
11620;SDS011;5866;49.094;11.900;2024-03-08T08:35:59;19.67;;;17.60;;
11620;SDS011;5866;49.094;11.900;2024-03-08T08:38:27;18.35;;;16.38;;
11620;SDS011;5866;49.094;11.900;2024-03-08T08:40:54;17.48;;;15.57;;
11620;SDS011;5866;49.094;11.900;2024-03-08T08:43:22;20.10;;;18.00;;
11620;SDS011;5866;49.094;11.900;2024-03-08T08:45:51;17.35;;;15.50;;
11620;SDS011;5866;49.094;11.900;2024-03-08T08:48:21;17.55;;;15.85;;
11620;SDS011;5866;49.094;11.900;2024-03-08T08:50:48;17.88;;;16.05;;
11620;SDS011;5866;49.094;11.900;2024-03-08T08:53:19;18.23;;;16.27;;
11620;SDS011;5866;49.094;11.900;2024-03-08T08:55:48;17.25;;;15.43;;
11620;SDS011;5866;49.094;11.900;2024-03-08T08:58:15;16.77;;;15.23;;
11620;SDS011;5866;49.094;11.900;2024-03-08T09:00:44;17.70;;;15.80;;
11620;SDS011;5866;49.094;11.900;2024-03-08T09:03:12;18.08;;;16.20;;
11620;SDS011;5866;49.094;11.900;2024-03-08T09:05:40;18.08;;;16.25;;
11620;SDS011;5866;49.094;11.900;2024-03-08T09:08:11;18.08;;;15.52;;
11620;SDS011;5866;49.094;11.900;2024-03-08T09:10:40;17.85;;;15.10;;
11620;SDS011;5866;49.094;11.900;2024-03-08T09:13:09;16.70;;;15.05;;
11620;SDS011;5866;49.094;11.900;2024-03-08T09:15:49;15.75;;;14.35;;
11620;SDS011;5866;49.094;11.900;2024-03-08T09:18:19;17.15;;;15.55;;
11620;SDS011;5866;49.094;11.900;2024-03-08T09:20:46;16.15;;;14.48;;
11620;SDS011;5866;49.094;11.900;2024-03-08T09:23:14;16.15;;;14.55;;
11620;SDS011;5866;49.094;11.900;2024-03-08T09:25:44;15.55;;;13.90;;
11620;SDS011;5866;49.094;11.900;2024-03-08T09:28:13;14.10;;;12.70;;
11620;SDS011;5866;49.094;11.900;2024-03-08T09:30:42;15.77;;;14.18;;
11620;SDS011;5866;49.094;11.900;2024-03-08T09:33:22;16.15;;;14.45;;
11620;SDS011;5866;49.094;11.900;2024-03-08T09:35:50;13.20;;;11.80;;
11620;SDS011;5866;49.094;11.900;2024-03-08T09:38:17;16.13;;;14.52;;
11620;SDS011;5866;49.094;11.900;2024-03-08T09:40:48;14.65;;;13.15;;
11620;SDS011;5866;49.094;11.900;2024-03-08T09:43:15;15.10;;;13.60;;
11620;SDS011;5866;49.094;11.900;2024-03-08T09:45:47;13.70;;;12.40;;
11620;SDS011;5866;49.094;11.900;2024-03-08T09:48:16;13.45;;;12.15;;
11620;SDS011;5866;49.094;11.900;2024-03-08T09:50:46;15.18;;;13.60;;
11620;SDS011;5866;49.094;11.900;2024-03-08T09:53:14;15.93;;;14.43;;
11620;SDS011;5866;49.094;11.900;2024-03-08T09:55:43;15.23;;;13.63;;
11620;SDS011;5866;49.094;11.900;2024-03-08T09:58:13;14.63;;;13.13;;
11620;SDS011;5866;49.094;11.900;2024-03-08T10:01:15;15.85;;;14.25;;
11620;SDS011;5866;49.094;11.900;2024-03-08T10:03:42;13.32;;;12.10;;
11620;SDS011;5866;49.094;11.900;2024-03-08T10:06:10;14.20;;;12.90;;
11620;SDS011;5866;49.094;11.900;2024-03-08T10:08:38;15.23;;;13.80;;
11620;SDS011;5866;49.094;11.900;2024-03-08T10:11:08;16.38;;;13.80;;
11620;SDS011;5866;49.094;11.900;2024-03-08T10:13:39;13.98;;;12.50;;
11620;SDS011;5866;49.094;11.900;2024-03-08T10:16:07;13.55;;;12.23;;
11620;SDS011;5866;49.094;11.900;2024-03-08T10:18:35;14.45;;;12.80;;
11620;SDS011;5866;49.094;11.900;2024-03-08T10:21:03;12.63;;;11.43;;
11620;SDS011;5866;49.094;11.900;2024-03-08T10:23:33;14.38;;;12.50;;
11620;SDS011;5866;49.094;11.900;2024-03-08T10:26:10;14.25;;;12.60;;
11620;SDS011;5866;49.094;11.900;2024-03-08T10:28:42;11.48;;;9.93;;
11620;SDS011;5866;49.094;11.900;2024-03-08T10:31:12;12.25;;;11.05;;
11620;SDS011;5866;49.094;11.900;2024-03-08T10:33:43;12.23;;;10.98;;
11620;SDS011;5866;49.094;11.900;2024-03-08T10:36:11;10.38;;;9.32;;
11620;SDS011;5866;49.094;11.900;2024-03-08T10:38:41;12.40;;;11.10;;
11620;SDS011;5866;49.094;11.900;2024-03-08T10:41:11;12.68;;;11.38;;
11620;SDS011;5866;49.094;11.900;2024-03-08T10:43:45;13.07;;;10.68;;
11620;SDS011;5866;49.094;11.900;2024-03-08T10:46:37;11.75;;;10.55;;
11620;SDS011;5866;49.094;11.900;2024-03-08T10:49:17;12.80;;;11.50;;
11620;SDS011;5866;49.094;11.900;2024-03-08T10:51:52;12.93;;;10.43;;
11620;SDS011;5866;49.094;11.900;2024-03-08T10:54:21;12.10;;;10.73;;
11620;SDS011;5866;49.094;11.900;2024-03-08T10:56:50;12.88;;;10.98;;
11620;SDS011;5866;49.094;11.900;2024-03-08T10:59:20;12.73;;;10.93;;
11620;SDS011;5866;49.094;11.900;2024-03-08T11:01:49;12.57;;;10.82;;
11620;SDS011;5866;49.094;11.900;2024-03-08T11:04:17;14.65;;;11.77;;
11620;SDS011;5866;49.094;11.900;2024-03-08T11:06:50;12.70;;;11.40;;
11620;SDS011;5866;49.094;11.900;2024-03-08T11:09:29;14.13;;;11.82;;
11620;SDS011;5866;49.094;11.900;2024-03-08T11:14:47;12.55;;;11.35;;
11620;SDS011;5866;49.094;11.900;2024-03-08T11:17:20;12.95;;;11.65;;
11620;SDS011;5866;49.094;11.900;2024-03-08T11:19:49;11.70;;;10.50;;
11620;SDS011;5866;49.094;11.900;2024-03-08T11:22:20;15.45;;;13.15;;
11620;SDS011;5866;49.094;11.900;2024-03-08T11:24:51;13.60;;;11.23;;
11620;SDS011;5866;49.094;11.900;2024-03-08T11:27:18;13.43;;;11.75;;
11620;SDS011;5866;49.094;11.900;2024-03-08T11:30:00;11.75;;;10.55;;
11620;SDS011;5866;49.094;11.900;2024-03-08T11:32:44;12.00;;;10.82;;
11620;SDS011;5866;49.094;11.900;2024-03-08T11:35:17;11.35;;;10.15;;
11620;SDS011;5866;49.094;11.900;2024-03-08T11:37:46;12.52;;;11.20;;
11620;SDS011;5866;49.094;11.900;2024-03-08T11:40:14;12.35;;;11.05;;
11620;SDS011;5866;49.094;11.900;2024-03-08T11:42:44;13.60;;;12.02;;
11620;SDS011;5866;49.094;11.900;2024-03-08T11:45:15;13.15;;;10.73;;
11620;SDS011;5866;49.094;11.900;2024-03-08T11:47:44;12.57;;;11.27;;
11620;SDS011;5866;49.094;11.900;2024-03-08T11:50:13;10.68;;;8.90;;
11620;SDS011;5866;49.094;11.900;2024-03-08T11:52:41;10.68;;;9.57;;
11620;SDS011;5866;49.094;11.900;2024-03-08T11:55:10;11.85;;;10.20;;
11620;SDS011;5866;49.094;11.900;2024-03-08T11:57:39;11.25;;;10.15;;
11620;SDS011;5866;49.094;11.900;2024-03-08T12:00:14;11.35;;;10.00;;
11620;SDS011;5866;49.094;11.900;2024-03-08T12:03:00;10.32;;;9.32;;
11620;SDS011;5866;49.094;11.900;2024-03-08T12:05:30;10.32;;;9.30;;
11620;SDS011;5866;49.094;11.900;2024-03-08T12:07:59;11.40;;;10.15;;
11620;SDS011;5866;49.094;11.900;2024-03-08T12:10:28;11.13;;;10.02;;
11620;SDS011;5866;49.094;11.900;2024-03-08T12:12:57;11.15;;;9.80;;
11620;SDS011;5866;49.094;11.900;2024-03-08T12:15:28;11.38;;;9.45;;
11620;SDS011;5866;49.094;11.900;2024-03-08T12:17:59;10.15;;;9.15;;
11620;SDS011;5866;49.094;11.900;2024-03-08T12:20:27;10.52;;;9.45;;
11620;SDS011;5866;49.094;11.900;2024-03-08T12:22:57;10.38;;;9.38;;
11620;SDS011;5866;49.094;11.900;2024-03-08T12:25:26;10.80;;;9.80;;
11620;SDS011;5866;49.094;11.900;2024-03-08T12:28:06;10.55;;;9.43;;
11620;SDS011;5866;49.094;11.900;2024-03-08T12:30:43;11.38;;;9.60;;
11620;SDS011;5866;49.094;11.900;2024-03-08T12:33:14;11.32;;;9.85;;
11620;SDS011;5866;49.094;11.900;2024-03-08T12:35:49;12.02;;;9.35;;
11620;SDS011;5866;49.094;11.900;2024-03-08T12:38:20;10.00;;;8.90;;
11620;SDS011;5866;49.094;11.900;2024-03-08T12:40:51;11.32;;;9.05;;
11620;SDS011;5866;49.094;11.900;2024-03-08T12:43:23;11.30;;;10.10;;
11620;SDS011;5866;49.094;11.900;2024-03-08T12:45:52;11.13;;;10.13;;
11620;SDS011;5866;49.094;11.900;2024-03-08T12:48:21;11.40;;;10.30;;
11620;SDS011;5866;49.094;11.900;2024-03-08T12:50:48;9.30;;;8.35;;
11620;SDS011;5866;49.094;11.900;2024-03-08T12:53:17;14.00;;;11.52;;
11620;SDS011;5866;49.094;11.900;2024-03-08T12:55:45;12.63;;;11.43;;
11620;SDS011;5866;49.094;11.900;2024-03-08T12:58:13;11.88;;;10.70;;
11620;SDS011;5866;49.094;11.900;2024-03-08T13:00:43;12.82;;;11.63;;
11620;SDS011;5866;49.094;11.900;2024-03-08T13:03:12;11.38;;;9.75;;
11620;SDS011;5866;49.094;11.900;2024-03-08T13:05:39;11.18;;;10.05;;
11620;SDS011;5866;49.094;11.900;2024-03-08T13:08:08;10.77;;;9.73;;
11620;SDS011;5866;49.094;11.900;2024-03-08T13:10:39;9.95;;;8.95;;
11620;SDS011;5866;49.094;11.900;2024-03-08T13:13:10;9.38;;;8.38;;
11620;SDS011;5866;49.094;11.900;2024-03-08T13:15:37;10.70;;;9.70;;
11620;SDS011;5866;49.094;11.900;2024-03-08T13:18:08;9.02;;;8.10;;
11620;SDS011;5866;49.094;11.900;2024-03-08T13:20:38;8.80;;;7.90;;
11620;SDS011;5866;49.094;11.900;2024-03-08T13:23:13;9.55;;;7.97;;
11620;SDS011;5866;49.094;11.900;2024-03-08T13:25:41;8.27;;;7.45;;
11620;SDS011;5866;49.094;11.900;2024-03-08T13:28:09;9.23;;;8.23;;
11620;SDS011;5866;49.094;11.900;2024-03-08T13:30:37;8.75;;;7.85;;
11620;SDS011;5866;49.094;11.900;2024-03-08T13:33:04;8.45;;;7.65;;
11620;SDS011;5866;49.094;11.900;2024-03-08T13:35:33;9.60;;;7.88;;
11620;SDS011;5866;49.094;11.900;2024-03-08T13:38:02;10.98;;;9.95;;
11620;SDS011;5866;49.094;11.900;2024-03-08T13:40:31;7.50;;;6.80;;
11620;SDS011;5866;49.094;11.900;2024-03-08T13:42:59;8.45;;;6.97;;
11620;SDS011;5866;49.094;11.900;2024-03-08T13:45:27;6.45;;;5.75;;
11620;SDS011;5866;49.094;11.900;2024-03-08T13:47:54;7.10;;;6.40;;
11620;SDS011;5866;49.094;11.900;2024-03-08T13:50:22;6.95;;;6.25;;
11620;SDS011;5866;49.094;11.900;2024-03-08T13:52:52;6.53;;;5.80;;
11620;SDS011;5866;49.094;11.900;2024-03-08T13:55:23;6.97;;;6.15;;
11620;SDS011;5866;49.094;11.900;2024-03-08T13:57:53;7.55;;;6.40;;
11620;SDS011;5866;49.094;11.900;2024-03-08T14:00:21;7.05;;;6.35;;
11620;SDS011;5866;49.094;11.900;2024-03-08T14:02:51;6.93;;;5.88;;
11620;SDS011;5866;49.094;11.900;2024-03-08T14:05:20;5.78;;;5.20;;
11620;SDS011;5866;49.094;11.900;2024-03-08T14:07:48;7.97;;;7.18;;
11620;SDS011;5866;49.094;11.900;2024-03-08T14:10:16;8.20;;;7.35;;
11620;SDS011;5866;49.094;11.900;2024-03-08T14:12:48;8.27;;;7.05;;
11620;SDS011;5866;49.094;11.900;2024-03-08T14:15:17;7.82;;;7.13;;
11620;SDS011;5866;49.094;11.900;2024-03-08T14:17:45;7.45;;;6.65;;
11620;SDS011;5866;49.094;11.900;2024-03-08T14:20:20;8.10;;;7.28;;
11620;SDS011;5866;49.094;11.900;2024-03-08T14:22:51;7.22;;;6.25;;
11620;SDS011;5866;49.094;11.900;2024-03-08T14:25:19;6.78;;;6.07;;
11620;SDS011;5866;49.094;11.900;2024-03-08T14:27:51;7.28;;;6.32;;
11620;SDS011;5866;49.094;11.900;2024-03-08T14:30:20;8.23;;;7.03;;
11620;SDS011;5866;49.094;11.900;2024-03-08T14:33:00;8.88;;;7.35;;
11620;SDS011;5866;49.094;11.900;2024-03-08T14:35:28;7.43;;;6.70;;
11620;SDS011;5866;49.094;11.900;2024-03-08T14:37:56;7.90;;;6.95;;